sensor_id;sensor_type;location;lat;lon;timestamp;temperature;humidity
70676;DHT22;59069;52.242;20.900;2023-03-03T00:01:28;-0.38;86.81
70676;DHT22;59069;52.242;20.900;2023-03-03T00:03:55;-0.44;86.87
70676;DHT22;59069;52.242;20.900;2023-03-03T00:06:20;-0.44;86.95
70676;DHT22;59069;52.242;20.900;2023-03-03T00:08:46;-0.44;87.00
70676;DHT22;59069;52.242;20.900;2023-03-03T00:11:12;-0.46;87.04
70676;DHT22;59069;52.242;20.900;2023-03-03T00:13:50;-0.47;87.06
70676;DHT22;59069;52.242;20.900;2023-03-03T00:18:51;-0.47;87.02
70676;DHT22;59069;52.242;20.900;2023-03-03T00:21:26;-0.47;87.01
70676;DHT22;59069;52.242;20.900;2023-03-03T00:23:55;-0.50;87.02
70676;DHT22;59069;52.242;20.900;2023-03-03T00:26:30;-0.49;87.04
70676;DHT22;59069;52.242;20.900;2023-03-03T00:28:59;-0.49;87.03
70676;DHT22;59069;52.242;20.900;2023-03-03T00:31:34;-0.53;87.07
70676;DHT22;59069;52.242;20.900;2023-03-03T00:34:25;-0.52;87.22
70676;DHT22;59069;52.242;20.900;2023-03-03T00:36:56;-0.52;87.30
70676;DHT22;59069;52.242;20.900;2023-03-03T00:39:34;-0.53;87.33
70676;DHT22;59069;52.242;20.900;2023-03-03T00:42:00;-0.54;87.36
70676;DHT22;59069;52.242;20.900;2023-03-03T00:47:29;-0.57;87.51
70676;DHT22;59069;52.242;20.900;2023-03-03T00:52:43;-0.56;87.58
70676;DHT22;59069;52.242;20.900;2023-03-03T00:55:10;-0.53;87.57
70676;DHT22;59069;52.242;20.900;2023-03-03T00:57:35;-0.56;87.57
70676;DHT22;59069;52.242;20.900;2023-03-03T01:00:01;-0.56;87.55
70676;DHT22;59069;52.242;20.900;2023-03-03T01:02:27;-0.56;87.52
70676;DHT22;59069;52.242;20.900;2023-03-03T01:04:53;-0.56;87.55
70676;DHT22;59069;52.242;20.900;2023-03-03T01:07:22;-0.54;87.55
70676;DHT22;59069;52.242;20.900;2023-03-03T01:09:47;-0.57;87.61
70676;DHT22;59069;52.242;20.900;2023-03-03T01:12:13;-0.57;87.61
70676;DHT22;59069;52.242;20.900;2023-03-03T01:14:40;-0.58;87.64
70676;DHT22;59069;52.242;20.900;2023-03-03T01:17:06;-0.58;87.61
70676;DHT22;59069;52.242;20.900;2023-03-03T01:19:31;-0.58;87.58
70676;DHT22;59069;52.242;20.900;2023-03-03T01:21:57;-0.61;87.76
70676;DHT22;59069;52.242;20.900;2023-03-03T01:24:23;-0.63;87.75
70676;DHT22;59069;52.242;20.900;2023-03-03T01:26:48;-0.63;87.78
70676;DHT22;59069;52.242;20.900;2023-03-03T01:29:14;-0.64;87.84
70676;DHT22;59069;52.242;20.900;2023-03-03T01:31:40;-0.67;87.84
70676;DHT22;59069;52.242;20.900;2023-03-03T01:34:06;-0.65;87.87
70676;DHT22;59069;52.242;20.900;2023-03-03T01:36:32;-0.64;87.94
70676;DHT22;59069;52.242;20.900;2023-03-03T01:38:58;-0.65;87.91
70676;DHT22;59069;52.242;20.900;2023-03-03T01:41:28;-0.67;87.89
70676;DHT22;59069;52.242;20.900;2023-03-03T01:43:54;-0.68;87.88
70676;DHT22;59069;52.242;20.900;2023-03-03T01:48:51;-0.70;88.00
70676;DHT22;59069;52.242;20.900;2023-03-03T01:51:27;-0.70;88.07
70676;DHT22;59069;52.242;20.900;2023-03-03T01:54:05;-0.71;88.09
70676;DHT22;59069;52.242;20.900;2023-03-03T01:56:35;-0.71;88.11
70676;DHT22;59069;52.242;20.900;2023-03-03T01:59:15;-0.71;88.07
70676;DHT22;59069;52.242;20.900;2023-03-03T02:01:42;-0.74;88.09
70676;DHT22;59069;52.242;20.900;2023-03-03T02:04:08;-0.74;88.11
70676;DHT22;59069;52.242;20.900;2023-03-03T02:06:37;-0.75;88.12
70676;DHT22;59069;52.242;20.900;2023-03-03T02:09:26;-0.78;88.25
70676;DHT22;59069;52.242;20.900;2023-03-03T02:11:57;-0.78;88.22
70676;DHT22;59069;52.242;20.900;2023-03-03T02:14:24;-0.75;88.26
70676;DHT22;59069;52.242;20.900;2023-03-03T02:16:50;-0.74;88.27
70676;DHT22;59069;52.242;20.900;2023-03-03T02:22:25;-0.77;88.47
70676;DHT22;59069;52.242;20.900;2023-03-03T02:24:56;-0.71;88.44
70676;DHT22;59069;52.242;20.900;2023-03-03T02:27:25;-0.74;88.47
70676;DHT22;59069;52.242;20.900;2023-03-03T02:29:51;-0.71;88.43
70676;DHT22;59069;52.242;20.900;2023-03-03T02:32:17;-0.70;88.43
70676;DHT22;59069;52.242;20.900;2023-03-03T02:34:46;-0.71;88.38
70676;DHT22;59069;52.242;20.900;2023-03-03T02:37:11;-0.70;88.28
70676;DHT22;59069;52.242;20.900;2023-03-03T02:39:37;-0.74;88.21
70676;DHT22;59069;52.242;20.900;2023-03-03T02:42:11;-0.73;88.18
70676;DHT22;59069;52.242;20.900;2023-03-03T02:44:39;-0.77;88.14
70676;DHT22;59069;52.242;20.900;2023-03-03T02:47:04;-0.80;88.15
70676;DHT22;59069;52.242;20.900;2023-03-03T02:49:32;-0.81;88.15
70676;DHT22;59069;52.242;20.900;2023-03-03T02:51:58;-0.83;88.20
70676;DHT22;59069;52.242;20.900;2023-03-03T02:54:26;-0.84;88.20
70676;DHT22;59069;52.242;20.900;2023-03-03T02:56:52;-0.87;88.25
70676;DHT22;59069;52.242;20.900;2023-03-03T02:59:18;-0.87;88.29
70676;DHT22;59069;52.242;20.900;2023-03-03T03:01:45;-0.91;88.38
70676;DHT22;59069;52.242;20.900;2023-03-03T03:04:20;-0.94;88.40
70676;DHT22;59069;52.242;20.900;2023-03-03T03:06:47;-0.94;88.51
70676;DHT22;59069;52.242;20.900;2023-03-03T03:09:14;-0.98;88.50
70676;DHT22;59069;52.242;20.900;2023-03-03T03:11:40;-0.98;88.63
70676;DHT22;59069;52.242;20.900;2023-03-03T03:14:08;-1.04;88.78
70676;DHT22;59069;52.242;20.900;2023-03-03T03:16:35;-1.02;88.71
70676;DHT22;59069;52.242;20.900;2023-03-03T03:19:02;-1.06;88.67
70676;DHT22;59069;52.242;20.900;2023-03-03T03:21:28;-1.05;88.70
70676;DHT22;59069;52.242;20.900;2023-03-03T03:23:54;-1.05;88.66
70676;DHT22;59069;52.242;20.900;2023-03-03T03:26:20;-1.08;88.70
70676;DHT22;59069;52.242;20.900;2023-03-03T03:28:49;-1.11;88.74
70676;DHT22;59069;52.242;20.900;2023-03-03T03:31:16;-1.12;88.78
70676;DHT22;59069;52.242;20.900;2023-03-03T03:33:42;-1.13;88.85
70676;DHT22;59069;52.242;20.900;2023-03-03T03:36:08;-1.16;88.86
70676;DHT22;59069;52.242;20.900;2023-03-03T03:38:34;-1.15;88.90
70676;DHT22;59069;52.242;20.900;2023-03-03T03:41:01;-1.18;88.88
70676;DHT22;59069;52.242;20.900;2023-03-03T03:43:27;-1.16;88.87
70676;DHT22;59069;52.242;20.900;2023-03-03T03:45:53;-1.16;88.98
70676;DHT22;59069;52.242;20.900;2023-03-03T03:48:19;-1.20;88.96
70676;DHT22;59069;52.242;20.900;2023-03-03T03:50:49;-1.19;89.08
70676;DHT22;59069;52.242;20.900;2023-03-03T03:53:15;-1.18;89.13
70676;DHT22;59069;52.242;20.900;2023-03-03T03:55:41;-1.24;89.08
70676;DHT22;59069;52.242;20.900;2023-03-03T03:58:07;-1.22;89.13
70676;DHT22;59069;52.242;20.900;2023-03-03T04:00:33;-1.22;89.19
70676;DHT22;59069;52.242;20.900;2023-03-03T04:02:59;-1.19;89.30
70676;DHT22;59069;52.242;20.900;2023-03-03T04:05:24;-1.20;89.41
70676;DHT22;59069;52.242;20.900;2023-03-03T04:07:50;-1.20;89.36
70676;DHT22;59069;52.242;20.900;2023-03-03T04:10:15;-1.18;89.41
70676;DHT22;59069;52.242;20.900;2023-03-03T04:12:42;-1.16;89.38
70676;DHT22;59069;52.242;20.900;2023-03-03T04:15:10;-1.18;89.43
70676;DHT22;59069;52.242;20.900;2023-03-03T04:17:36;-1.20;89.40
70676;DHT22;59069;52.242;20.900;2023-03-03T04:20:03;-1.19;89.44
70676;DHT22;59069;52.242;20.900;2023-03-03T04:22:29;-1.19;89.39
70676;DHT22;59069;52.242;20.900;2023-03-03T04:25:02;-1.20;89.41
70676;DHT22;59069;52.242;20.900;2023-03-03T04:27:31;-1.24;89.34
70676;DHT22;59069;52.242;20.900;2023-03-03T04:29:56;-1.24;89.39
70676;DHT22;59069;52.242;20.900;2023-03-03T04:32:22;-1.22;89.54
70676;DHT22;59069;52.242;20.900;2023-03-03T04:34:48;-1.24;89.59
70676;DHT22;59069;52.242;20.900;2023-03-03T04:37:13;-1.24;89.63
70676;DHT22;59069;52.242;20.900;2023-03-03T04:39:39;-1.24;89.62
70676;DHT22;59069;52.242;20.900;2023-03-03T04:42:05;-1.25;89.63
70676;DHT22;59069;52.242;20.900;2023-03-03T04:44:30;-1.24;89.66
70676;DHT22;59069;52.242;20.900;2023-03-03T04:46:56;-1.24;89.55
70676;DHT22;59069;52.242;20.900;2023-03-03T04:49:21;-1.25;89.54
70676;DHT22;59069;52.242;20.900;2023-03-03T04:51:47;-1.28;89.49
70676;DHT22;59069;52.242;20.900;2023-03-03T04:54:13;-1.28;89.49
70676;DHT22;59069;52.242;20.900;2023-03-03T04:56:38;-1.31;89.48
70676;DHT22;59069;52.242;20.900;2023-03-03T04:59:04;-1.32;89.42
70676;DHT22;59069;52.242;20.900;2023-03-03T05:01:29;-1.34;89.43
70676;DHT22;59069;52.242;20.900;2023-03-03T05:03:55;-1.34;89.45
70676;DHT22;59069;52.242;20.900;2023-03-03T05:06:21;-1.35;89.56
70676;DHT22;59069;52.242;20.900;2023-03-03T05:08:46;-1.35;89.66
70676;DHT22;59069;52.242;20.900;2023-03-03T05:11:12;-1.36;89.82
70676;DHT22;59069;52.242;20.900;2023-03-03T05:13:38;-1.38;89.93
70676;DHT22;59069;52.242;20.900;2023-03-03T05:16:04;-1.34;89.97
70676;DHT22;59069;52.242;20.900;2023-03-03T05:18:30;-1.32;90.07
70676;DHT22;59069;52.242;20.900;2023-03-03T05:20:55;-1.28;90.26
70676;DHT22;59069;52.242;20.900;2023-03-03T05:23:21;-1.28;90.56
70676;DHT22;59069;52.242;20.900;2023-03-03T05:25:48;-1.24;90.67
70676;DHT22;59069;52.242;20.900;2023-03-03T05:28:13;-1.18;90.67
70676;DHT22;59069;52.242;20.900;2023-03-03T05:30:39;-1.16;90.59
70676;DHT22;59069;52.242;20.900;2023-03-03T05:33:05;-1.15;90.52
70676;DHT22;59069;52.242;20.900;2023-03-03T05:35:31;-1.15;90.43
70676;DHT22;59069;52.242;20.900;2023-03-03T05:37:57;-1.11;90.40
70676;DHT22;59069;52.242;20.900;2023-03-03T05:40:26;-1.13;90.42
70676;DHT22;59069;52.242;20.900;2023-03-03T05:42:52;-1.09;90.60
70676;DHT22;59069;52.242;20.900;2023-03-03T05:45:18;-1.12;90.54
70676;DHT22;59069;52.242;20.900;2023-03-03T05:47:52;-1.08;90.59
70676;DHT22;59069;52.242;20.900;2023-03-03T05:50:21;-1.08;90.58
70676;DHT22;59069;52.242;20.900;2023-03-03T05:52:51;-1.04;90.71
70676;DHT22;59069;52.242;20.900;2023-03-03T05:55:17;-1.04;90.64
70676;DHT22;59069;52.242;20.900;2023-03-03T05:57:43;-1.01;90.59
70676;DHT22;59069;52.242;20.900;2023-03-03T06:00:10;-1.04;90.48
70676;DHT22;59069;52.242;20.900;2023-03-03T06:02:36;-1.04;90.61
70676;DHT22;59069;52.242;20.900;2023-03-03T06:05:02;-1.04;90.65
70676;DHT22;59069;52.242;20.900;2023-03-03T06:07:27;-1.04;90.71
70676;DHT22;59069;52.242;20.900;2023-03-03T06:09:53;-1.04;90.82
70676;DHT22;59069;52.242;20.900;2023-03-03T06:12:18;-0.99;90.86
70676;DHT22;59069;52.242;20.900;2023-03-03T06:14:44;-1.01;90.75
70676;DHT22;59069;52.242;20.900;2023-03-03T06:17:10;-1.01;90.72
70676;DHT22;59069;52.242;20.900;2023-03-03T06:19:36;-1.04;90.57
70676;DHT22;59069;52.242;20.900;2023-03-03T06:22:02;-1.12;90.47
70676;DHT22;59069;52.242;20.900;2023-03-03T06:24:28;-1.15;90.55
70676;DHT22;59069;52.242;20.900;2023-03-03T06:26:59;-1.19;90.75
70676;DHT22;59069;52.242;20.900;2023-03-03T06:29:25;-1.19;90.95
70676;DHT22;59069;52.242;20.900;2023-03-03T06:31:51;-1.20;91.13
70676;DHT22;59069;52.242;20.900;2023-03-03T06:34:16;-1.19;91.21
70676;DHT22;59069;52.242;20.900;2023-03-03T06:36:42;-1.16;91.36
70676;DHT22;59069;52.242;20.900;2023-03-03T06:39:07;-1.15;91.39
70676;DHT22;59069;52.242;20.900;2023-03-03T06:41:33;-1.11;91.41
70676;DHT22;59069;52.242;20.900;2023-03-03T06:43:58;-1.15;91.23
70676;DHT22;59069;52.242;20.900;2023-03-03T06:46:25;-1.18;91.27
70676;DHT22;59069;52.242;20.900;2023-03-03T06:48:51;-1.19;91.55
70676;DHT22;59069;52.242;20.900;2023-03-03T06:51:32;-1.16;91.61
70676;DHT22;59069;52.242;20.900;2023-03-03T06:54:01;-1.15;91.73
70676;DHT22;59069;52.242;20.900;2023-03-03T06:56:33;-1.13;91.89
70676;DHT22;59069;52.242;20.900;2023-03-03T06:59:00;-1.08;92.15
70676;DHT22;59069;52.242;20.900;2023-03-03T07:01:29;-1.05;92.24
70676;DHT22;59069;52.242;20.900;2023-03-03T07:03:59;-0.99;92.26
70676;DHT22;59069;52.242;20.900;2023-03-03T07:06:26;-0.97;92.30
70676;DHT22;59069;52.242;20.900;2023-03-03T07:08:53;-0.94;92.37
70676;DHT22;59069;52.242;20.900;2023-03-03T07:11:22;-0.85;92.59
70676;DHT22;59069;52.242;20.900;2023-03-03T07:13:53;-0.80;92.50
70676;DHT22;59069;52.242;20.900;2023-03-03T07:16:24;-0.80;92.32
70676;DHT22;59069;52.242;20.900;2023-03-03T07:18:55;-0.73;92.26
70676;DHT22;59069;52.242;20.900;2023-03-03T07:21:41;-0.74;92.10
70676;DHT22;59069;52.242;20.900;2023-03-03T07:24:28;-0.74;91.96
70676;DHT22;59069;52.242;20.900;2023-03-03T07:26:59;-0.73;91.95
70676;DHT22;59069;52.242;20.900;2023-03-03T07:29:30;-0.71;91.87
70676;DHT22;59069;52.242;20.900;2023-03-03T07:32:00;-0.65;91.98
70676;DHT22;59069;52.242;20.900;2023-03-03T07:34:29;-0.63;92.20
70676;DHT22;59069;52.242;20.900;2023-03-03T07:37:01;-0.61;92.24
70676;DHT22;59069;52.242;20.900;2023-03-03T07:39:39;-0.56;92.20
70676;DHT22;59069;52.242;20.900;2023-03-03T07:45:27;-0.43;92.28
70676;DHT22;59069;52.242;20.900;2023-03-03T07:48:05;-0.40;92.14
70676;DHT22;59069;52.242;20.900;2023-03-03T07:50:34;-0.36;92.20
70676;DHT22;59069;52.242;20.900;2023-03-03T07:53:00;-0.34;92.05
70676;DHT22;59069;52.242;20.900;2023-03-03T07:55:34;-0.32;91.93
70676;DHT22;59069;52.242;20.900;2023-03-03T08:03:43;-0.23;91.81
70676;DHT22;59069;52.242;20.900;2023-03-03T08:06:34;-0.19;91.92
70676;DHT22;59069;52.242;20.900;2023-03-03T08:14:34;-0.12;91.59
70676;DHT22;59069;52.242;20.900;2023-03-03T08:17:01;-0.06;91.57
70676;DHT22;59069;52.242;20.900;2023-03-03T08:19:28;-0.03;91.44
70676;DHT22;59069;52.242;20.900;2023-03-03T08:22:01;-0.02;91.20
70676;DHT22;59069;52.242;20.900;2023-03-03T08:24:31;0.01;91.23
70676;DHT22;59069;52.242;20.900;2023-03-03T08:26:57;0.07;91.19
70676;DHT22;59069;52.242;20.900;2023-03-03T08:29:22;0.09;91.08
70676;DHT22;59069;52.242;20.900;2023-03-03T08:31:48;0.12;90.96
70676;DHT22;59069;52.242;20.900;2023-03-03T08:34:13;0.18;90.73
70676;DHT22;59069;52.242;20.900;2023-03-03T08:36:39;0.21;90.64
70676;DHT22;59069;52.242;20.900;2023-03-03T08:39:04;0.26;90.71
70676;DHT22;59069;52.242;20.900;2023-03-03T08:41:30;0.30;90.64
70676;DHT22;59069;52.242;20.900;2023-03-03T08:43:56;0.32;90.29
70676;DHT22;59069;52.242;20.900;2023-03-03T08:46:23;0.32;90.14
70676;DHT22;59069;52.242;20.900;2023-03-03T08:48:48;0.36;89.98
70676;DHT22;59069;52.242;20.900;2023-03-03T08:51:14;0.36;89.74
70676;DHT22;59069;52.242;20.900;2023-03-03T08:53:40;0.35;89.61
70676;DHT22;59069;52.242;20.900;2023-03-03T08:56:06;0.36;89.65
70676;DHT22;59069;52.242;20.900;2023-03-03T08:58:31;0.41;89.85
70676;DHT22;59069;52.242;20.900;2023-03-03T09:00:57;0.46;89.76
70676;DHT22;59069;52.242;20.900;2023-03-03T09:03:23;0.49;89.66
70676;DHT22;59069;52.242;20.900;2023-03-03T09:05:49;0.55;89.60
70676;DHT22;59069;52.242;20.900;2023-03-03T09:08:14;0.59;89.42
70676;DHT22;59069;52.242;20.900;2023-03-03T09:10:40;0.65;89.26
70676;DHT22;59069;52.242;20.900;2023-03-03T09:13:16;0.70;89.34
70676;DHT22;59069;52.242;20.900;2023-03-03T09:15:43;0.76;89.32
70676;DHT22;59069;52.242;20.900;2023-03-03T09:18:15;0.81;89.18
70676;DHT22;59069;52.242;20.900;2023-03-03T09:20:46;0.86;88.94
70676;DHT22;59069;52.242;20.900;2023-03-03T09:25:46;0.94;88.21
70676;DHT22;59069;52.242;20.900;2023-03-03T09:28:30;0.96;88.14
70676;DHT22;59069;52.242;20.900;2023-03-03T09:30:58;0.97;87.89
70676;DHT22;59069;52.242;20.900;2023-03-03T09:33:28;0.94;87.61
70676;DHT22;59069;52.242;20.900;2023-03-03T09:38:46;0.94;87.16
70676;DHT22;59069;52.242;20.900;2023-03-03T09:41:42;0.90;86.85
70676;DHT22;59069;52.242;20.900;2023-03-03T09:44:35;0.90;86.95
70676;DHT22;59069;52.242;20.900;2023-03-03T09:58:05;0.77;86.43
70676;DHT22;59069;52.242;20.900;2023-03-03T10:06:03;0.73;86.50
70676;DHT22;59069;52.242;20.900;2023-03-03T10:11:18;0.73;86.51
70676;DHT22;59069;52.242;20.900;2023-03-03T10:14:06;0.79;86.56
70676;DHT22;59069;52.242;20.900;2023-03-03T10:17:05;0.80;86.46
70676;DHT22;59069;52.242;20.900;2023-03-03T10:19:49;0.79;86.36
70676;DHT22;59069;52.242;20.900;2023-03-03T10:33:04;0.81;86.31
70676;DHT22;59069;52.242;20.900;2023-03-03T10:41:50;0.87;86.19
70676;DHT22;59069;52.242;20.900;2023-03-03T10:50:19;0.84;85.78
70676;DHT22;59069;52.242;20.900;2023-03-03T10:52:51;0.84;85.71
70676;DHT22;59069;52.242;20.900;2023-03-03T10:58:21;0.87;85.72
70676;DHT22;59069;52.242;20.900;2023-03-03T11:01:07;0.90;85.52
70676;DHT22;59069;52.242;20.900;2023-03-03T11:06:25;0.91;85.20
70676;DHT22;59069;52.242;20.900;2023-03-03T11:14:36;0.94;84.97
70676;DHT22;59069;52.242;20.900;2023-03-03T11:23:17;0.81;84.68
70676;DHT22;59069;52.242;20.900;2023-03-03T11:28:59;0.77;84.83
70676;DHT22;59069;52.242;20.900;2023-03-03T11:36:52;0.79;84.82
70676;DHT22;59069;52.242;20.900;2023-03-03T11:39:22;0.77;84.79
70676;DHT22;59069;52.242;20.900;2023-03-03T11:45:00;0.72;84.73
70676;DHT22;59069;52.242;20.900;2023-03-03T11:50:10;0.70;84.95
70676;DHT22;59069;52.242;20.900;2023-03-03T11:52:52;0.70;84.87
70676;DHT22;59069;52.242;20.900;2023-03-03T11:55:35;0.70;84.69
70676;DHT22;59069;52.242;20.900;2023-03-03T11:58:16;0.67;84.63
70676;DHT22;59069;52.242;20.900;2023-03-03T12:00:55;0.65;84.75
70676;DHT22;59069;52.242;20.900;2023-03-03T12:06:17;0.60;85.05
70676;DHT22;59069;52.242;20.900;2023-03-03T12:14:40;0.67;85.39
70676;DHT22;59069;52.242;20.900;2023-03-03T12:22:31;0.72;85.19
70676;DHT22;59069;52.242;20.900;2023-03-03T12:28:05;0.70;85.07
70676;DHT22;59069;52.242;20.900;2023-03-03T12:34:01;0.75;85.23
70676;DHT22;59069;52.242;20.900;2023-03-03T12:44:47;0.67;85.31
70676;DHT22;59069;52.242;20.900;2023-03-03T12:47:32;0.67;85.40
70676;DHT22;59069;52.242;20.900;2023-03-03T12:58:22;0.67;85.42
70676;DHT22;59069;52.242;20.900;2023-03-03T13:06:31;0.65;85.81
70676;DHT22;59069;52.242;20.900;2023-03-03T13:14:54;0.69;85.81
70676;DHT22;59069;52.242;20.900;2023-03-03T13:20:24;0.66;85.51
70676;DHT22;59069;52.242;20.900;2023-03-03T13:28:34;0.66;85.68
70676;DHT22;59069;52.242;20.900;2023-03-03T13:31:11;0.67;85.97
70676;DHT22;59069;52.242;20.900;2023-03-03T13:33:42;0.65;85.91
70676;DHT22;59069;52.242;20.900;2023-03-03T13:36:13;0.63;85.86
70676;DHT22;59069;52.242;20.900;2023-03-03T13:38:51;0.65;85.85
70676;DHT22;59069;52.242;20.900;2023-03-03T13:46:53;0.58;85.79
70676;DHT22;59069;52.242;20.900;2023-03-03T13:49:43;0.58;85.75
70676;DHT22;59069;52.242;20.900;2023-03-03T13:52:14;0.58;85.66
70676;DHT22;59069;52.242;20.900;2023-03-03T14:05:24;0.59;85.86
70676;DHT22;59069;52.242;20.900;2023-03-03T14:07:59;0.59;85.66
70676;DHT22;59069;52.242;20.900;2023-03-03T14:10:32;0.58;85.57
70676;DHT22;59069;52.242;20.900;2023-03-03T14:13:05;0.58;85.59
70676;DHT22;59069;52.242;20.900;2023-03-03T14:15:37;0.60;85.59
70676;DHT22;59069;52.242;20.900;2023-03-03T14:18:13;0.58;85.37
70676;DHT22;59069;52.242;20.900;2023-03-03T14:20:53;0.58;85.50
70676;DHT22;59069;52.242;20.900;2023-03-03T14:28:36;0.60;85.06
70676;DHT22;59069;52.242;20.900;2023-03-03T14:31:20;0.58;84.96
70676;DHT22;59069;52.242;20.900;2023-03-03T14:34:00;0.58;84.87
70676;DHT22;59069;52.242;20.900;2023-03-03T14:36:30;0.56;84.96
70676;DHT22;59069;52.242;20.900;2023-03-03T14:38:56;0.53;84.90
70676;DHT22;59069;52.242;20.900;2023-03-03T14:41:34;0.52;84.96
70676;DHT22;59069;52.242;20.900;2023-03-03T14:44:28;0.48;84.91
70676;DHT22;59069;52.242;20.900;2023-03-03T14:47:20;0.48;85.01
70676;DHT22;59069;52.242;20.900;2023-03-03T14:49:47;0.49;85.18
70676;DHT22;59069;52.242;20.900;2023-03-03T14:54:49;0.52;85.15
70676;DHT22;59069;52.242;20.900;2023-03-03T15:00:25;0.53;84.71
70676;DHT22;59069;52.242;20.900;2023-03-03T15:03:34;0.46;84.59
70676;DHT22;59069;52.242;20.900;2023-03-03T15:05:52;0.48;84.64
70676;DHT22;59069;52.242;20.900;2023-03-03T15:08:36;0.46;84.48
70676;DHT22;59069;52.242;20.900;2023-03-03T15:11:19;0.45;84.65
70676;DHT22;59069;52.242;20.900;2023-03-03T15:13:45;0.49;84.80
70676;DHT22;59069;52.242;20.900;2023-03-03T15:16:17;0.50;84.64
70676;DHT22;59069;52.242;20.900;2023-03-03T15:21:32;0.53;84.31
70676;DHT22;59069;52.242;20.900;2023-03-03T15:26:37;0.58;84.13
70676;DHT22;59069;52.242;20.900;2023-03-03T15:29:34;0.58;84.11
70676;DHT22;59069;52.242;20.900;2023-03-03T15:32:28;0.60;84.14
70676;DHT22;59069;52.242;20.900;2023-03-03T15:37:58;0.62;84.10
70676;DHT22;59069;52.242;20.900;2023-03-03T15:48:32;0.46;83.98
70676;DHT22;59069;52.242;20.900;2023-03-03T15:51:07;0.44;84.02
70676;DHT22;59069;52.242;20.900;2023-03-03T15:56:44;0.36;83.94
70676;DHT22;59069;52.242;20.900;2023-03-03T16:05:12;0.29;84.08
70676;DHT22;59069;52.242;20.900;2023-03-03T16:08:08;0.29;84.11
70676;DHT22;59069;52.242;20.900;2023-03-03T16:24:27;0.36;84.09
70676;DHT22;59069;52.242;20.900;2023-03-03T16:27:01;0.38;84.09
70676;DHT22;59069;52.242;20.900;2023-03-03T16:32:39;0.38;84.32
70676;DHT22;59069;52.242;20.900;2023-03-03T16:38:02;0.42;84.29
70676;DHT22;59069;52.242;20.900;2023-03-03T16:40:42;0.41;84.35
70676;DHT22;59069;52.242;20.900;2023-03-03T16:43:21;0.39;84.34
70676;DHT22;59069;52.242;20.900;2023-03-03T16:45:49;0.41;84.21
70676;DHT22;59069;52.242;20.900;2023-03-03T16:51:38;0.41;84.35
70676;DHT22;59069;52.242;20.900;2023-03-03T16:54:55;0.39;84.38
70676;DHT22;59069;52.242;20.900;2023-03-03T16:57:06;0.35;84.44
70676;DHT22;59069;52.242;20.900;2023-03-03T16:59:51;0.29;84.56
70676;DHT22;59069;52.242;20.900;2023-03-03T17:02:47;0.24;84.75
70676;DHT22;59069;52.242;20.900;2023-03-03T17:05:35;0.22;84.87
70676;DHT22;59069;52.242;20.900;2023-03-03T17:16:14;0.21;85.16
70676;DHT22;59069;52.242;20.900;2023-03-03T17:27:02;0.07;85.18
70676;DHT22;59069;52.242;20.900;2023-03-03T17:29:53;0.07;85.34
70676;DHT22;59069;52.242;20.900;2023-03-03T17:45:59;0.05;85.52
70676;DHT22;59069;52.242;20.900;2023-03-03T17:49:10;0.04;85.57
70676;DHT22;59069;52.242;20.900;2023-03-03T17:51:42;0.04;85.48
70676;DHT22;59069;52.242;20.900;2023-03-03T17:56:44;0.04;85.60
70676;DHT22;59069;52.242;20.900;2023-03-03T18:14:52;0.04;85.37
70676;DHT22;59069;52.242;20.900;2023-03-03T18:22:49;0.07;85.24
70676;DHT22;59069;52.242;20.900;2023-03-03T18:25:18;0.04;85.26
70676;DHT22;59069;52.242;20.900;2023-03-03T18:27:46;0.04;85.33
70676;DHT22;59069;52.242;20.900;2023-03-03T18:30:57;0.05;85.49
70676;DHT22;59069;52.242;20.900;2023-03-03T18:38:57;-0.02;85.25
70676;DHT22;59069;52.242;20.900;2023-03-03T18:41:31;-0.02;85.29
70676;DHT22;59069;52.242;20.900;2023-03-03T18:44:24;-0.05;85.29
70676;DHT22;59069;52.242;20.900;2023-03-03T18:46:51;-0.02;85.24
70676;DHT22;59069;52.242;20.900;2023-03-03T18:49:18;-0.02;85.15
70676;DHT22;59069;52.242;20.900;2023-03-03T18:52:32;0.01;85.14
70676;DHT22;59069;52.242;20.900;2023-03-03T18:55:20;0.01;85.07
70676;DHT22;59069;52.242;20.900;2023-03-03T19:00:51;-0.01;85.00
70676;DHT22;59069;52.242;20.900;2023-03-03T19:05:52;-0.01;84.96
70676;DHT22;59069;52.242;20.900;2023-03-03T19:08:28;0.02;85.00
70676;DHT22;59069;52.242;20.900;2023-03-03T19:10:57;0.02;85.04
70676;DHT22;59069;52.242;20.900;2023-03-03T19:13:44;0.05;85.09
70676;DHT22;59069;52.242;20.900;2023-03-03T19:16:29;0.05;85.00
70676;DHT22;59069;52.242;20.900;2023-03-03T19:21:35;0.08;84.96
70676;DHT22;59069;52.242;20.900;2023-03-03T19:24:03;0.08;84.96
70676;DHT22;59069;52.242;20.900;2023-03-03T19:26:33;0.05;84.76
70676;DHT22;59069;52.242;20.900;2023-03-03T19:37:21;0.09;84.59
70676;DHT22;59069;52.242;20.900;2023-03-03T19:45:11;0.09;84.29
70676;DHT22;59069;52.242;20.900;2023-03-03T19:47:45;0.11;84.35
70676;DHT22;59069;52.242;20.900;2023-03-03T19:50:29;0.11;84.32
70676;DHT22;59069;52.242;20.900;2023-03-03T20:09:04;0.15;84.19
70676;DHT22;59069;52.242;20.900;2023-03-03T20:12:09;0.17;84.21
70676;DHT22;59069;52.242;20.900;2023-03-03T20:20:40;0.21;84.06
70676;DHT22;59069;52.242;20.900;2023-03-03T20:24:20;0.19;83.99
70676;DHT22;59069;52.242;20.900;2023-03-03T20:26:58;0.21;83.92
70676;DHT22;59069;52.242;20.900;2023-03-03T20:29:43;0.22;83.90
70676;DHT22;59069;52.242;20.900;2023-03-03T20:38:08;0.29;83.90
70676;DHT22;59069;52.242;20.900;2023-03-03T20:51:57;0.33;83.74
70676;DHT22;59069;52.242;20.900;2023-03-03T20:57:14;0.33;83.75
70676;DHT22;59069;52.242;20.900;2023-03-03T21:02:17;0.38;83.66
70676;DHT22;59069;52.242;20.900;2023-03-03T21:04:44;0.38;83.65
70676;DHT22;59069;52.242;20.900;2023-03-03T21:07:23;0.39;83.65
70676;DHT22;59069;52.242;20.900;2023-03-03T21:09:49;0.41;83.58
70676;DHT22;59069;52.242;20.900;2023-03-03T21:12:33;0.42;83.58
70676;DHT22;59069;52.242;20.900;2023-03-03T21:15:03;0.41;83.63
70676;DHT22;59069;52.242;20.900;2023-03-03T21:17:31;0.42;83.60
70676;DHT22;59069;52.242;20.900;2023-03-03T21:22:49;0.41;83.63
70676;DHT22;59069;52.242;20.900;2023-03-03T21:28:13;0.45;83.54
70676;DHT22;59069;52.242;20.900;2023-03-03T21:31:18;0.44;83.57
70676;DHT22;59069;52.242;20.900;2023-03-03T21:33:44;0.44;83.55
70676;DHT22;59069;52.242;20.900;2023-03-03T21:38:58;0.45;83.54
70676;DHT22;59069;52.242;20.900;2023-03-03T21:41:26;0.45;83.56
70676;DHT22;59069;52.242;20.900;2023-03-03T21:43:52;0.45;83.58
70676;DHT22;59069;52.242;20.900;2023-03-03T21:46:23;0.46;83.63
70676;DHT22;59069;52.242;20.900;2023-03-03T21:48:50;0.45;83.62
70676;DHT22;59069;52.242;20.900;2023-03-03T21:51:16;0.46;83.67
70676;DHT22;59069;52.242;20.900;2023-03-03T21:53:44;0.49;83.68
70676;DHT22;59069;52.242;20.900;2023-03-03T21:56:11;0.50;83.63
70676;DHT22;59069;52.242;20.900;2023-03-03T21:58:41;0.50;83.67
70676;DHT22;59069;52.242;20.900;2023-03-03T22:01:07;0.50;83.75
70676;DHT22;59069;52.242;20.900;2023-03-03T22:03:33;0.50;83.77